Watsonville, California
Current Conditions -  °F | °C
As of 12:53 PM on Saturday 22 Nov 2014 (Local Time) from KWVI Reporting Station
Overcast Overcast  
Wind Chill: 61°   Ceiling: 700
Heat Index: 61°   Visibility: 10mi
Dew Point: 58°   Wind: 5mph
Humidity: 90%   Direction: 90°E
Pressure: 30.13"   Gusts: NA
Location:  36.91°N, 121.75°W
Report Text: KWVI 222053Z AUTO 09004KT 10SM OVC007 16/14 A3013 RMK AO2 CIG 004V008 SLP202 60006 T01610144 58012
Loading
Personal Weather Stations






























Interactive Weather Map New forecast layout! Learn more

10-Day Weather Forecast

Advertisements
Track Severe Weather on mobile